sensor_id;sensor_type;location;lat;lon;timestamp;P1;durP1;ratioP1;P2;durP2;ratioP2
66546;SDS011;53400;50.364;14.874;2022-08-30T00:00:49;10.18;;;5.00;;
66546;SDS011;53400;50.364;14.874;2022-08-30T00:03:29;10.85;;;4.93;;
66546;SDS011;53400;50.364;14.874;2022-08-30T00:05:57;7.55;;;4.43;;
66546;SDS011;53400;50.364;14.874;2022-08-30T00:08:22;7.88;;;4.65;;
66546;SDS011;53400;50.364;14.874;2022-08-30T00:10:48;8.40;;;4.68;;
66546;SDS011;53400;50.364;14.874;2022-08-30T00:13:15;10.95;;;5.13;;
66546;SDS011;53400;50.364;14.874;2022-08-30T00:15:44;9.65;;;5.05;;
66546;SDS011;53400;50.364;14.874;2022-08-30T00:18:11;8.25;;;4.63;;
66546;SDS011;53400;50.364;14.874;2022-08-30T00:20:37;9.60;;;4.70;;
66546;SDS011;53400;50.364;14.874;2022-08-30T00:23:03;8.18;;;4.63;;
66546;SDS011;53400;50.364;14.874;2022-08-30T00:25:30;10.35;;;4.90;;
66546;SDS011;53400;50.364;14.874;2022-08-30T00:27:56;7.43;;;4.72;;
66546;SDS011;53400;50.364;14.874;2022-08-30T00:30:22;8.75;;;4.53;;
66546;SDS011;53400;50.364;14.874;2022-08-30T00:32:49;8.27;;;4.50;;
66546;SDS011;53400;50.364;14.874;2022-08-30T00:35:16;8.25;;;4.32;;
66546;SDS011;53400;50.364;14.874;2022-08-30T00:37:42;10.23;;;4.05;;
66546;SDS011;53400;50.364;14.874;2022-08-30T00:40:09;9.05;;;4.63;;
66546;SDS011;53400;50.364;14.874;2022-08-30T00:42:37;9.48;;;4.68;;
66546;SDS011;53400;50.364;14.874;2022-08-30T00:45:09;8.73;;;4.15;;
66546;SDS011;53400;50.364;14.874;2022-08-30T00:47:39;7.85;;;4.43;;
66546;SDS011;53400;50.364;14.874;2022-08-30T00:50:07;8.00;;;4.35;;
66546;SDS011;53400;50.364;14.874;2022-08-30T00:52:34;7.40;;;4.72;;
66546;SDS011;53400;50.364;14.874;2022-08-30T00:55:03;7.53;;;4.20;;
66546;SDS011;53400;50.364;14.874;2022-08-30T00:57:30;8.02;;;4.22;;
66546;SDS011;53400;50.364;14.874;2022-08-30T00:59:56;9.15;;;4.43;;
66546;SDS011;53400;50.364;14.874;2022-08-30T01:02:23;7.45;;;4.20;;
66546;SDS011;53400;50.364;14.874;2022-08-30T01:04:51;10.77;;;5.10;;
66546;SDS011;53400;50.364;14.874;2022-08-30T01:07:19;10.35;;;5.13;;
66546;SDS011;53400;50.364;14.874;2022-08-30T01:09:45;10.45;;;5.10;;
66546;SDS011;53400;50.364;14.874;2022-08-30T01:12:11;9.65;;;4.95;;
66546;SDS011;53400;50.364;14.874;2022-08-30T01:14:37;9.63;;;4.70;;
66546;SDS011;53400;50.364;14.874;2022-08-30T01:17:04;9.43;;;4.88;;
66546;SDS011;53400;50.364;14.874;2022-08-30T01:19:32;9.18;;;4.60;;
66546;SDS011;53400;50.364;14.874;2022-08-30T01:22:03;9.13;;;4.95;;
66546;SDS011;53400;50.364;14.874;2022-08-30T01:24:35;8.93;;;4.50;;
66546;SDS011;53400;50.364;14.874;2022-08-30T01:27:01;9.73;;;5.15;;
66546;SDS011;53400;50.364;14.874;2022-08-30T01:29:28;9.75;;;4.72;;
66546;SDS011;53400;50.364;14.874;2022-08-30T01:31:54;10.73;;;5.28;;
66546;SDS011;53400;50.364;14.874;2022-08-30T01:34:19;9.32;;;4.93;;
66546;SDS011;53400;50.364;14.874;2022-08-30T01:36:46;9.13;;;5.43;;
66546;SDS011;53400;50.364;14.874;2022-08-30T01:39:13;9.50;;;4.93;;
66546;SDS011;53400;50.364;14.874;2022-08-30T01:41:42;10.35;;;5.93;;
66546;SDS011;53400;50.364;14.874;2022-08-30T01:44:11;9.15;;;5.57;;
66546;SDS011;53400;50.364;14.874;2022-08-30T01:46:39;10.07;;;5.13;;
66546;SDS011;53400;50.364;14.874;2022-08-30T01:49:11;11.88;;;5.90;;
66546;SDS011;53400;50.364;14.874;2022-08-30T01:51:39;11.00;;;5.93;;
66546;SDS011;53400;50.364;14.874;2022-08-30T01:54:06;14.05;;;6.57;;
66546;SDS011;53400;50.364;14.874;2022-08-30T01:56:32;11.05;;;6.20;;
66546;SDS011;53400;50.364;14.874;2022-08-30T01:59:00;10.57;;;6.20;;
66546;SDS011;53400;50.364;14.874;2022-08-30T02:01:26;10.35;;;6.68;;
66546;SDS011;53400;50.364;14.874;2022-08-30T02:03:54;14.57;;;6.15;;
66546;SDS011;53400;50.364;14.874;2022-08-30T02:06:21;10.52;;;5.95;;
66546;SDS011;53400;50.364;14.874;2022-08-30T02:08:47;10.63;;;6.20;;
66546;SDS011;53400;50.364;14.874;2022-08-30T02:11:14;11.57;;;5.97;;
66546;SDS011;53400;50.364;14.874;2022-08-30T02:13:40;8.40;;;5.30;;
66546;SDS011;53400;50.364;14.874;2022-08-30T02:16:09;10.68;;;5.32;;
66546;SDS011;53400;50.364;14.874;2022-08-30T02:18:38;10.88;;;5.70;;
66546;SDS011;53400;50.364;14.874;2022-08-30T02:21:04;10.10;;;6.05;;
66546;SDS011;53400;50.364;14.874;2022-08-30T02:23:31;12.13;;;6.15;;
66546;SDS011;53400;50.364;14.874;2022-08-30T02:25:56;10.65;;;6.20;;
66546;SDS011;53400;50.364;14.874;2022-08-30T02:28:22;11.23;;;6.35;;
66546;SDS011;53400;50.364;14.874;2022-08-30T02:30:50;10.95;;;6.10;;
66546;SDS011;53400;50.364;14.874;2022-08-30T02:33:17;11.05;;;6.38;;
66546;SDS011;53400;50.364;14.874;2022-08-30T02:35:43;9.90;;;6.13;;
66546;SDS011;53400;50.364;14.874;2022-08-30T02:38:09;10.45;;;6.00;;
66546;SDS011;53400;50.364;14.874;2022-08-30T02:40:35;10.52;;;6.15;;
66546;SDS011;53400;50.364;14.874;2022-08-30T02:43:01;11.57;;;6.75;;
66546;SDS011;53400;50.364;14.874;2022-08-30T02:45:27;12.93;;;6.50;;
66546;SDS011;53400;50.364;14.874;2022-08-30T02:47:53;11.15;;;6.88;;
66546;SDS011;53400;50.364;14.874;2022-08-30T02:50:22;10.60;;;7.20;;
66546;SDS011;53400;50.364;14.874;2022-08-30T02:52:48;11.27;;;6.70;;
66546;SDS011;53400;50.364;14.874;2022-08-30T02:55:14;13.32;;;6.63;;
66546;SDS011;53400;50.364;14.874;2022-08-30T02:57:40;13.35;;;7.10;;
66546;SDS011;53400;50.364;14.874;2022-08-30T03:00:08;12.65;;;7.30;;
66546;SDS011;53400;50.364;14.874;2022-08-30T03:02:37;13.45;;;7.63;;
66546;SDS011;53400;50.364;14.874;2022-08-30T03:05:03;15.10;;;8.35;;
66546;SDS011;53400;50.364;14.874;2022-08-30T03:07:32;13.18;;;8.38;;
66546;SDS011;53400;50.364;14.874;2022-08-30T03:09:58;13.27;;;7.70;;
66546;SDS011;53400;50.364;14.874;2022-08-30T03:12:24;16.27;;;8.48;;
66546;SDS011;53400;50.364;14.874;2022-08-30T03:14:51;13.20;;;7.55;;
66546;SDS011;53400;50.364;14.874;2022-08-30T03:17:17;13.27;;;8.48;;
66546;SDS011;53400;50.364;14.874;2022-08-30T03:19:43;12.18;;;8.07;;
66546;SDS011;53400;50.364;14.874;2022-08-30T03:22:10;11.70;;;8.02;;
66546;SDS011;53400;50.364;14.874;2022-08-30T03:24:37;12.35;;;8.55;;
66546;SDS011;53400;50.364;14.874;2022-08-30T03:27:04;13.38;;;8.45;;
66546;SDS011;53400;50.364;14.874;2022-08-30T03:29:32;13.88;;;8.68;;
66546;SDS011;53400;50.364;14.874;2022-08-30T03:31:58;13.38;;;8.30;;
66546;SDS011;53400;50.364;14.874;2022-08-30T03:34:25;16.80;;;8.85;;
66546;SDS011;53400;50.364;14.874;2022-08-30T03:36:52;15.88;;;9.00;;
66546;SDS011;53400;50.364;14.874;2022-08-30T03:39:19;12.95;;;8.35;;
66546;SDS011;53400;50.364;14.874;2022-08-30T03:41:49;15.52;;;8.98;;
66546;SDS011;53400;50.364;14.874;2022-08-30T03:44:15;14.20;;;9.18;;
66546;SDS011;53400;50.364;14.874;2022-08-30T03:46:41;15.65;;;8.88;;
66546;SDS011;53400;50.364;14.874;2022-08-30T03:49:07;14.15;;;8.30;;
66546;SDS011;53400;50.364;14.874;2022-08-30T03:51:33;16.33;;;9.15;;
66546;SDS011;53400;50.364;14.874;2022-08-30T03:53:59;11.93;;;8.77;;
66546;SDS011;53400;50.364;14.874;2022-08-30T03:56:25;16.48;;;9.50;;
66546;SDS011;53400;50.364;14.874;2022-08-30T03:58:53;14.85;;;8.73;;
66546;SDS011;53400;50.364;14.874;2022-08-30T04:01:19;14.57;;;9.38;;
66546;SDS011;53400;50.364;14.874;2022-08-30T04:03:44;15.15;;;9.68;;
66546;SDS011;53400;50.364;14.874;2022-08-30T04:06:11;15.43;;;9.32;;
66546;SDS011;53400;50.364;14.874;2022-08-30T04:08:37;15.48;;;8.82;;
66546;SDS011;53400;50.364;14.874;2022-08-30T04:11:03;15.20;;;9.73;;
66546;SDS011;53400;50.364;14.874;2022-08-30T04:13:29;13.75;;;9.57;;
66546;SDS011;53400;50.364;14.874;2022-08-30T04:15:56;14.25;;;9.55;;
66546;SDS011;53400;50.364;14.874;2022-08-30T04:18:22;16.73;;;8.98;;
66546;SDS011;53400;50.364;14.874;2022-08-30T04:20:49;15.63;;;10.05;;
66546;SDS011;53400;50.364;14.874;2022-08-30T04:23:15;14.90;;;10.13;;
66546;SDS011;53400;50.364;14.874;2022-08-30T04:25:41;16.95;;;9.68;;
66546;SDS011;53400;50.364;14.874;2022-08-30T04:28:07;16.92;;;10.07;;
66546;SDS011;53400;50.364;14.874;2022-08-30T04:30:35;15.02;;;9.73;;
66546;SDS011;53400;50.364;14.874;2022-08-30T04:33:05;14.98;;;10.30;;
66546;SDS011;53400;50.364;14.874;2022-08-30T04:35:31;20.45;;;10.25;;
66546;SDS011;53400;50.364;14.874;2022-08-30T04:37:57;17.73;;;9.75;;
66546;SDS011;53400;50.364;14.874;2022-08-30T04:40:22;16.45;;;9.75;;
66546;SDS011;53400;50.364;14.874;2022-08-30T04:42:48;16.80;;;10.63;;
66546;SDS011;53400;50.364;14.874;2022-08-30T04:45:18;16.10;;;10.00;;
66546;SDS011;53400;50.364;14.874;2022-08-30T04:47:46;16.58;;;9.93;;
66546;SDS011;53400;50.364;14.874;2022-08-30T04:50:15;14.07;;;9.15;;
66546;SDS011;53400;50.364;14.874;2022-08-30T04:52:43;15.20;;;9.15;;
66546;SDS011;53400;50.364;14.874;2022-08-30T04:55:09;16.70;;;9.93;;
66546;SDS011;53400;50.364;14.874;2022-08-30T04:57:36;13.43;;;9.52;;
66546;SDS011;53400;50.364;14.874;2022-08-30T05:00:03;13.50;;;9.07;;
66546;SDS011;53400;50.364;14.874;2022-08-30T05:02:30;15.18;;;10.35;;
66546;SDS011;53400;50.364;14.874;2022-08-30T05:04:57;12.88;;;8.88;;
66546;SDS011;53400;50.364;14.874;2022-08-30T05:07:42;13.40;;;8.63;;
66546;SDS011;53400;50.364;14.874;2022-08-30T05:10:08;13.77;;;9.00;;
66546;SDS011;53400;50.364;14.874;2022-08-30T05:12:34;15.00;;;9.00;;
66546;SDS011;53400;50.364;14.874;2022-08-30T05:15:00;14.13;;;8.93;;
66546;SDS011;53400;50.364;14.874;2022-08-30T05:17:26;14.65;;;8.50;;
66546;SDS011;53400;50.364;14.874;2022-08-30T05:19:52;14.27;;;9.20;;
66546;SDS011;53400;50.364;14.874;2022-08-30T05:22:18;13.68;;;8.75;;
66546;SDS011;53400;50.364;14.874;2022-08-30T05:24:45;12.95;;;8.57;;
66546;SDS011;53400;50.364;14.874;2022-08-30T05:27:11;14.25;;;8.30;;
66546;SDS011;53400;50.364;14.874;2022-08-30T05:29:37;12.02;;;7.95;;
66546;SDS011;53400;50.364;14.874;2022-08-30T05:32:03;14.02;;;7.82;;
66546;SDS011;53400;50.364;14.874;2022-08-30T05:34:29;14.02;;;7.95;;
66546;SDS011;53400;50.364;14.874;2022-08-30T05:36:55;13.27;;;7.60;;
66546;SDS011;53400;50.364;14.874;2022-08-30T05:39:21;12.63;;;7.95;;
66546;SDS011;53400;50.364;14.874;2022-08-30T05:41:48;13.70;;;7.68;;
66546;SDS011;53400;50.364;14.874;2022-08-30T05:44:14;10.40;;;6.70;;
66546;SDS011;53400;50.364;14.874;2022-08-30T05:46:40;10.93;;;6.40;;
66546;SDS011;53400;50.364;14.874;2022-08-30T05:49:10;11.70;;;6.63;;
66546;SDS011;53400;50.364;14.874;2022-08-30T05:51:36;11.18;;;6.80;;
66546;SDS011;53400;50.364;14.874;2022-08-30T05:54:03;11.30;;;5.90;;
66546;SDS011;53400;50.364;14.874;2022-08-30T05:56:31;11.85;;;6.63;;
66546;SDS011;53400;50.364;14.874;2022-08-30T05:59:00;9.75;;;6.20;;
66546;SDS011;53400;50.364;14.874;2022-08-30T06:01:27;11.50;;;6.32;;
66546;SDS011;53400;50.364;14.874;2022-08-30T06:03:56;10.30;;;6.20;;
66546;SDS011;53400;50.364;14.874;2022-08-30T06:06:24;10.90;;;6.85;;
66546;SDS011;53400;50.364;14.874;2022-08-30T06:08:51;11.45;;;6.38;;
66546;SDS011;53400;50.364;14.874;2022-08-30T06:11:18;9.57;;;6.72;;
66546;SDS011;53400;50.364;14.874;2022-08-30T06:13:46;11.40;;;6.55;;
66546;SDS011;53400;50.364;14.874;2022-08-30T06:16:15;11.25;;;6.40;;
66546;SDS011;53400;50.364;14.874;2022-08-30T06:18:41;9.48;;;6.75;;
66546;SDS011;53400;50.364;14.874;2022-08-30T06:21:07;10.90;;;5.95;;
66546;SDS011;53400;50.364;14.874;2022-08-30T06:23:40;11.18;;;6.90;;
66546;SDS011;53400;50.364;14.874;2022-08-30T06:26:08;11.48;;;6.30;;
66546;SDS011;53400;50.364;14.874;2022-08-30T06:28:35;13.00;;;6.97;;
66546;SDS011;53400;50.364;14.874;2022-08-30T06:31:04;12.68;;;6.72;;
66546;SDS011;53400;50.364;14.874;2022-08-30T06:33:32;11.82;;;6.65;;
66546;SDS011;53400;50.364;14.874;2022-08-30T06:36:00;11.27;;;6.47;;
66546;SDS011;53400;50.364;14.874;2022-08-30T06:38:27;11.18;;;6.60;;
66546;SDS011;53400;50.364;14.874;2022-08-30T06:40:54;11.80;;;7.13;;
66546;SDS011;53400;50.364;14.874;2022-08-30T06:43:20;12.65;;;7.32;;
66546;SDS011;53400;50.364;14.874;2022-08-30T06:45:46;11.77;;;6.65;;
66546;SDS011;53400;50.364;14.874;2022-08-30T06:48:13;10.82;;;6.50;;
66546;SDS011;53400;50.364;14.874;2022-08-30T06:50:40;11.85;;;6.13;;
66546;SDS011;53400;50.364;14.874;2022-08-30T06:53:07;10.43;;;6.90;;
66546;SDS011;53400;50.364;14.874;2022-08-30T06:55:33;10.40;;;6.35;;
66546;SDS011;53400;50.364;14.874;2022-08-30T06:58:00;12.43;;;6.72;;
66546;SDS011;53400;50.364;14.874;2022-08-30T07:00:26;12.68;;;6.80;;
66546;SDS011;53400;50.364;14.874;2022-08-30T07:02:53;11.85;;;7.00;;
66546;SDS011;53400;50.364;14.874;2022-08-30T07:05:20;12.25;;;6.13;;
66546;SDS011;53400;50.364;14.874;2022-08-30T07:07:49;10.20;;;6.18;;
66546;SDS011;53400;50.364;14.874;2022-08-30T07:10:17;10.70;;;6.20;;
66546;SDS011;53400;50.364;14.874;2022-08-30T07:12:50;11.73;;;6.45;;
66546;SDS011;53400;50.364;14.874;2022-08-30T07:15:16;10.27;;;5.95;;
66546;SDS011;53400;50.364;14.874;2022-08-30T07:17:44;10.95;;;6.25;;
66546;SDS011;53400;50.364;14.874;2022-08-30T07:20:29;9.93;;;5.95;;
66546;SDS011;53400;50.364;14.874;2022-08-30T07:22:56;9.98;;;5.32;;
66546;SDS011;53400;50.364;14.874;2022-08-30T07:25:23;7.53;;;4.60;;
66546;SDS011;53400;50.364;14.874;2022-08-30T07:27:49;12.73;;;5.57;;
66546;SDS011;53400;50.364;14.874;2022-08-30T07:30:16;10.52;;;5.10;;
66546;SDS011;53400;50.364;14.874;2022-08-30T07:32:43;8.23;;;4.70;;
66546;SDS011;53400;50.364;14.874;2022-08-30T07:35:09;8.63;;;4.97;;
66546;SDS011;53400;50.364;14.874;2022-08-30T07:37:35;9.32;;;4.90;;
66546;SDS011;53400;50.364;14.874;2022-08-30T07:40:02;9.73;;;5.05;;
66546;SDS011;53400;50.364;14.874;2022-08-30T07:42:29;7.65;;;4.60;;
66546;SDS011;53400;50.364;14.874;2022-08-30T07:44:55;10.30;;;4.72;;
66546;SDS011;53400;50.364;14.874;2022-08-30T07:47:21;9.77;;;4.95;;
66546;SDS011;53400;50.364;14.874;2022-08-30T07:49:47;8.00;;;4.72;;
66546;SDS011;53400;50.364;14.874;2022-08-30T07:52:13;9.32;;;4.95;;
66546;SDS011;53400;50.364;14.874;2022-08-30T07:54:38;9.07;;;4.60;;
66546;SDS011;53400;50.364;14.874;2022-08-30T07:57:06;9.98;;;4.68;;
66546;SDS011;53400;50.364;14.874;2022-08-30T07:59:32;8.35;;;4.60;;
66546;SDS011;53400;50.364;14.874;2022-08-30T08:01:57;9.88;;;4.93;;
66546;SDS011;53400;50.364;14.874;2022-08-30T08:04:23;9.02;;;5.40;;
66546;SDS011;53400;50.364;14.874;2022-08-30T08:06:49;8.00;;;5.00;;
66546;SDS011;53400;50.364;14.874;2022-08-30T08:09:15;9.65;;;5.22;;
66546;SDS011;53400;50.364;14.874;2022-08-30T08:11:42;8.75;;;4.97;;
66546;SDS011;53400;50.364;14.874;2022-08-30T08:14:09;9.93;;;5.00;;
66546;SDS011;53400;50.364;14.874;2022-08-30T08:16:35;7.55;;;5.10;;
66546;SDS011;53400;50.364;14.874;2022-08-30T08:19:02;11.30;;;6.10;;
66546;SDS011;53400;50.364;14.874;2022-08-30T08:21:29;8.60;;;5.03;;
66546;SDS011;53400;50.364;14.874;2022-08-30T08:23:55;8.63;;;4.85;;
66546;SDS011;53400;50.364;14.874;2022-08-30T08:26:21;9.93;;;4.93;;
66546;SDS011;53400;50.364;14.874;2022-08-30T08:28:47;11.93;;;5.13;;
66546;SDS011;53400;50.364;14.874;2022-08-30T08:31:15;10.43;;;4.90;;
66546;SDS011;53400;50.364;14.874;2022-08-30T08:33:42;10.05;;;4.97;;
66546;SDS011;53400;50.364;14.874;2022-08-30T08:36:08;9.27;;;5.20;;
66546;SDS011;53400;50.364;14.874;2022-08-30T08:38:34;8.45;;;4.65;;
66546;SDS011;53400;50.364;14.874;2022-08-30T08:41:02;10.07;;;4.75;;
66546;SDS011;53400;50.364;14.874;2022-08-30T08:43:34;8.13;;;4.40;;
66546;SDS011;53400;50.364;14.874;2022-08-30T08:46:03;8.30;;;4.55;;
66546;SDS011;53400;50.364;14.874;2022-08-30T08:48:39;8.52;;;4.57;;
66546;SDS011;53400;50.364;14.874;2022-08-30T08:51:07;7.70;;;4.47;;
66546;SDS011;53400;50.364;14.874;2022-08-30T08:53:54;8.20;;;4.57;;
66546;SDS011;53400;50.364;14.874;2022-08-30T08:56:25;9.27;;;4.40;;
66546;SDS011;53400;50.364;14.874;2022-08-30T08:58:51;9.55;;;5.03;;
66546;SDS011;53400;50.364;14.874;2022-08-30T09:01:20;11.13;;;5.20;;
66546;SDS011;53400;50.364;14.874;2022-08-30T09:03:49;11.25;;;4.72;;
66546;SDS011;53400;50.364;14.874;2022-08-30T09:06:21;7.32;;;4.25;;
66546;SDS011;53400;50.364;14.874;2022-08-30T09:08:53;11.25;;;4.80;;
66546;SDS011;53400;50.364;14.874;2022-08-30T09:11:20;8.55;;;4.88;;
66546;SDS011;53400;50.364;14.874;2022-08-30T09:13:47;8.60;;;4.28;;
66546;SDS011;53400;50.364;14.874;2022-08-30T09:19:28;7.88;;;4.25;;
66546;SDS011;53400;50.364;14.874;2022-08-30T09:22:10;8.15;;;4.00;;
66546;SDS011;53400;50.364;14.874;2022-08-30T09:24:39;10.90;;;4.30;;
66546;SDS011;53400;50.364;14.874;2022-08-30T09:30:00;8.60;;;4.00;;
66546;SDS011;53400;50.364;14.874;2022-08-30T09:32:32;8.10;;;4.45;;
66546;SDS011;53400;50.364;14.874;2022-08-30T09:35:05;9.23;;;3.70;;
66546;SDS011;53400;50.364;14.874;2022-08-30T09:37:35;8.10;;;3.55;;
66546;SDS011;53400;50.364;14.874;2022-08-30T09:40:08;8.02;;;4.10;;
66546;SDS011;53400;50.364;14.874;2022-08-30T09:42:37;8.65;;;4.32;;
66546;SDS011;53400;50.364;14.874;2022-08-30T09:45:03;7.10;;;3.70;;
66546;SDS011;53400;50.364;14.874;2022-08-30T09:47:36;8.18;;;3.85;;
66546;SDS011;53400;50.364;14.874;2022-08-30T09:50:06;10.93;;;4.00;;
66546;SDS011;53400;50.364;14.874;2022-08-30T09:52:44;8.02;;;3.90;;
66546;SDS011;53400;50.364;14.874;2022-08-30T09:55:20;9.55;;;3.92;;
66546;SDS011;53400;50.364;14.874;2022-08-30T09:57:55;8.52;;;4.25;;
66546;SDS011;53400;50.364;14.874;2022-08-30T10:00:30;7.65;;;3.97;;
66546;SDS011;53400;50.364;14.874;2022-08-30T10:05:37;9.30;;;4.30;;
66546;SDS011;53400;50.364;14.874;2022-08-30T10:08:16;7.55;;;4.00;;
66546;SDS011;53400;50.364;14.874;2022-08-30T10:10:48;8.93;;;3.97;;
66546;SDS011;53400;50.364;14.874;2022-08-30T10:13:28;7.93;;;4.43;;
66546;SDS011;53400;50.364;14.874;2022-08-30T10:16:02;6.88;;;4.05;;
66546;SDS011;53400;50.364;14.874;2022-08-30T10:18:37;9.30;;;4.20;;
66546;SDS011;53400;50.364;14.874;2022-08-30T10:21:12;8.48;;;4.18;;
66546;SDS011;53400;50.364;14.874;2022-08-30T10:23:43;9.48;;;4.30;;
66546;SDS011;53400;50.364;14.874;2022-08-30T10:26:23;8.02;;;4.13;;
66546;SDS011;53400;50.364;14.874;2022-08-30T10:28:56;8.18;;;4.25;;
66546;SDS011;53400;50.364;14.874;2022-08-30T10:31:27;7.43;;;4.10;;
66546;SDS011;53400;50.364;14.874;2022-08-30T10:34:00;9.13;;;4.30;;
66546;SDS011;53400;50.364;14.874;2022-08-30T10:36:34;7.15;;;3.85;;
66546;SDS011;53400;50.364;14.874;2022-08-30T10:39:07;8.32;;;3.97;;
66546;SDS011;53400;50.364;14.874;2022-08-30T10:41:38;7.63;;;4.20;;
66546;SDS011;53400;50.364;14.874;2022-08-30T10:44:08;8.02;;;4.13;;
66546;SDS011;53400;50.364;14.874;2022-08-30T10:46:45;8.52;;;4.30;;
66546;SDS011;53400;50.364;14.874;2022-08-30T10:49:22;6.38;;;3.80;;
66546;SDS011;53400;50.364;14.874;2022-08-30T10:51:56;9.57;;;4.50;;
66546;SDS011;53400;50.364;14.874;2022-08-30T10:54:33;8.50;;;3.97;;
66546;SDS011;53400;50.364;14.874;2022-08-30T10:57:04;7.90;;;3.92;;
66546;SDS011;53400;50.364;14.874;2022-08-30T10:59:30;9.52;;;4.22;;
66546;SDS011;53400;50.364;14.874;2022-08-30T11:02:08;7.88;;;4.20;;
66546;SDS011;53400;50.364;14.874;2022-08-30T11:05:00;7.05;;;4.05;;
66546;SDS011;53400;50.364;14.874;2022-08-30T11:07:46;8.60;;;4.35;;
66546;SDS011;53400;50.364;14.874;2022-08-30T11:10:24;8.88;;;4.25;;
66546;SDS011;53400;50.364;14.874;2022-08-30T11:13:00;7.00;;;3.97;;
66546;SDS011;53400;50.364;14.874;2022-08-30T11:15:30;10.00;;;4.20;;
66546;SDS011;53400;50.364;14.874;2022-08-30T11:18:15;9.15;;;3.97;;
66546;SDS011;53400;50.364;14.874;2022-08-30T11:20:43;9.63;;;3.83;;
66546;SDS011;53400;50.364;14.874;2022-08-30T11:23:29;7.30;;;4.03;;
66546;SDS011;53400;50.364;14.874;2022-08-30T11:25:58;7.57;;;3.88;;
66546;SDS011;53400;50.364;14.874;2022-08-30T11:31:33;7.90;;;3.20;;
66546;SDS011;53400;50.364;14.874;2022-08-30T11:34:01;7.30;;;3.47;;
66546;SDS011;53400;50.364;14.874;2022-08-30T11:39:51;6.10;;;3.63;;
66546;SDS011;53400;50.364;14.874;2022-08-30T11:42:26;8.75;;;3.45;;
66546;SDS011;53400;50.364;14.874;2022-08-30T11:48:02;7.53;;;3.40;;
66546;SDS011;53400;50.364;14.874;2022-08-30T11:50:31;6.35;;;3.50;;
66546;SDS011;53400;50.364;14.874;2022-08-30T11:53:01;6.78;;;3.40;;
66546;SDS011;53400;50.364;14.874;2022-08-30T11:55:39;8.45;;;3.50;;
66546;SDS011;53400;50.364;14.874;2022-08-30T11:58:18;6.07;;;3.20;;
66546;SDS011;53400;50.364;14.874;2022-08-30T12:01:14;6.95;;;3.13;;
66546;SDS011;53400;50.364;14.874;2022-08-30T12:03:44;6.55;;;3.50;;
66546;SDS011;53400;50.364;14.874;2022-08-30T12:09:11;7.55;;;3.40;;
66546;SDS011;53400;50.364;14.874;2022-08-30T12:11:59;5.63;;;3.50;;
66546;SDS011;53400;50.364;14.874;2022-08-30T12:17:19;6.07;;;3.28;;
66546;SDS011;53400;50.364;14.874;2022-08-30T12:20:10;6.70;;;3.53;;
66546;SDS011;53400;50.364;14.874;2022-08-30T12:22:41;6.82;;;3.60;;
66546;SDS011;53400;50.364;14.874;2022-08-30T12:25:12;6.95;;;3.20;;
66546;SDS011;53400;50.364;14.874;2022-08-30T12:27:44;8.05;;;3.38;;
66546;SDS011;53400;50.364;14.874;2022-08-30T12:30:10;5.70;;;3.10;;
66546;SDS011;53400;50.364;14.874;2022-08-30T12:32:42;8.93;;;3.38;;
66546;SDS011;53400;50.364;14.874;2022-08-30T12:35:16;6.00;;;3.53;;
66546;SDS011;53400;50.364;14.874;2022-08-30T12:37:53;7.15;;;3.45;;
66546;SDS011;53400;50.364;14.874;2022-08-30T12:40:22;5.95;;;3.40;;
66546;SDS011;53400;50.364;14.874;2022-08-30T12:42:50;7.10;;;3.45;;
66546;SDS011;53400;50.364;14.874;2022-08-30T12:45:19;6.38;;;3.35;;
66546;SDS011;53400;50.364;14.874;2022-08-30T12:47:49;7.65;;;3.60;;
66546;SDS011;53400;50.364;14.874;2022-08-30T12:50:18;5.65;;;3.28;;
66546;SDS011;53400;50.364;14.874;2022-08-30T12:52:47;6.90;;;3.13;;
66546;SDS011;53400;50.364;14.874;2022-08-30T12:55:22;9.00;;;3.92;;
66546;SDS011;53400;50.364;14.874;2022-08-30T12:57:59;6.05;;;3.60;;
66546;SDS011;53400;50.364;14.874;2022-08-30T13:00:27;7.22;;;3.53;;
66546;SDS011;53400;50.364;14.874;2022-08-30T13:02:55;6.65;;;3.35;;
66546;SDS011;53400;50.364;14.874;2022-08-30T13:05:41;7.20;;;3.38;;
66546;SDS011;53400;50.364;14.874;2022-08-30T13:08:14;6.93;;;3.42;;
66546;SDS011;53400;50.364;14.874;2022-08-30T13:10:49;6.88;;;3.58;;
66546;SDS011;53400;50.364;14.874;2022-08-30T13:13:26;9.40;;;4.35;;
66546;SDS011;53400;50.364;14.874;2022-08-30T13:16:08;5.93;;;3.60;;
66546;SDS011;53400;50.364;14.874;2022-08-30T13:18:37;7.03;;;3.55;;
66546;SDS011;53400;50.364;14.874;2022-08-30T13:23:54;7.25;;;3.42;;
66546;SDS011;53400;50.364;14.874;2022-08-30T13:26:22;6.57;;;3.50;;
66546;SDS011;53400;50.364;14.874;2022-08-30T13:28:49;6.80;;;3.60;;
66546;SDS011;53400;50.364;14.874;2022-08-30T13:31:17;9.70;;;3.60;;
66546;SDS011;53400;50.364;14.874;2022-08-30T13:33:43;6.15;;;3.47;;
66546;SDS011;53400;50.364;14.874;2022-08-30T13:36:10;8.20;;;3.20;;
66546;SDS011;53400;50.364;14.874;2022-08-30T13:38:37;6.05;;;3.15;;
66546;SDS011;53400;50.364;14.874;2022-08-30T13:41:03;7.45;;;4.00;;
66546;SDS011;53400;50.364;14.874;2022-08-30T13:43:29;6.32;;;3.10;;
66546;SDS011;53400;50.364;14.874;2022-08-30T13:45:56;7.78;;;3.67;;
66546;SDS011;53400;50.364;14.874;2022-08-30T13:48:22;6.63;;;3.22;;
66546;SDS011;53400;50.364;14.874;2022-08-30T13:50:49;6.28;;;3.40;;
66546;SDS011;53400;50.364;14.874;2022-08-30T13:53:15;6.25;;;3.50;;
66546;SDS011;53400;50.364;14.874;2022-08-30T13:55:41;6.00;;;3.45;;
66546;SDS011;53400;50.364;14.874;2022-08-30T13:58:08;5.38;;;3.13;;
66546;SDS011;53400;50.364;14.874;2022-08-30T14:00:34;6.95;;;3.40;;
66546;SDS011;53400;50.364;14.874;2022-08-30T14:03:01;5.68;;;3.30;;
66546;SDS011;53400;50.364;14.874;2022-08-30T14:05:28;5.28;;;3.20;;
66546;SDS011;53400;50.364;14.874;2022-08-30T14:07:56;7.13;;;3.90;;
66546;SDS011;53400;50.364;14.874;2022-08-30T14:10:22;6.38;;;3.60;;
66546;SDS011;53400;50.364;14.874;2022-08-30T14:12:50;8.00;;;4.18;;
66546;SDS011;53400;50.364;14.874;2022-08-30T14:15:16;5.78;;;3.20;;
66546;SDS011;53400;50.364;14.874;2022-08-30T14:17:42;5.65;;;3.03;;
66546;SDS011;53400;50.364;14.874;2022-08-30T14:20:09;6.15;;;3.97;;
66546;SDS011;53400;50.364;14.874;2022-08-30T14:22:35;7.10;;;3.60;;
66546;SDS011;53400;50.364;14.874;2022-08-30T14:25:01;6.80;;;4.20;;
66546;SDS011;53400;50.364;14.874;2022-08-30T14:27:28;5.47;;;3.45;;
66546;SDS011;53400;50.364;14.874;2022-08-30T14:29:54;6.28;;;3.70;;
66546;SDS011;53400;50.364;14.874;2022-08-30T14:32:21;7.00;;;3.17;;
66546;SDS011;53400;50.364;14.874;2022-08-30T14:34:47;6.43;;;3.28;;
66546;SDS011;53400;50.364;14.874;2022-08-30T14:37:14;5.68;;;3.42;;
66546;SDS011;53400;50.364;14.874;2022-08-30T14:39:40;6.45;;;3.90;;
66546;SDS011;53400;50.364;14.874;2022-08-30T14:42:07;7.70;;;3.85;;
66546;SDS011;53400;50.364;14.874;2022-08-30T14:44:33;6.15;;;3.47;;
66546;SDS011;53400;50.364;14.874;2022-08-30T14:47:00;6.28;;;3.50;;
66546;SDS011;53400;50.364;14.874;2022-08-30T14:49:26;6.70;;;4.22;;
66546;SDS011;53400;50.364;14.874;2022-08-30T14:51:52;6.78;;;3.35;;
66546;SDS011;53400;50.364;14.874;2022-08-30T14:54:20;5.70;;;3.80;;
66546;SDS011;53400;50.364;14.874;2022-08-30T14:56:48;7.10;;;3.40;;
66546;SDS011;53400;50.364;14.874;2022-08-30T14:59:14;6.38;;;3.80;;
66546;SDS011;53400;50.364;14.874;2022-08-30T15:01:40;8.60;;;3.30;;
66546;SDS011;53400;50.364;14.874;2022-08-30T15:04:07;6.88;;;3.53;;